createdAt,value
2022-09-20T00:01:47.692Z,9.45
2022-09-20T00:04:11.591Z,6.50
2022-09-20T00:06:36.597Z,10.88
2022-09-20T00:09:01.455Z,9.82
2022-09-20T00:11:28.509Z,9.00
2022-09-20T00:13:56.332Z,8.82
2022-09-20T00:16:24.058Z,12.05
2022-09-20T00:18:50.777Z,7.72
2022-09-20T00:21:18.219Z,6.93
2022-09-20T00:23:41.800Z,8.77
2022-09-20T00:26:06.345Z,12.00
2022-09-20T00:28:33.666Z,8.82
2022-09-20T00:30:57.985Z,10.10
2022-09-20T00:33:21.761Z,10.93
2022-09-20T00:35:44.629Z,10.18
2022-09-20T00:38:34.803Z,8.20
2022-09-20T00:41:02.830Z,8.55
2022-09-20T00:43:39.671Z,10.57
2022-09-20T00:46:05.076Z,8.65
2022-09-20T00:48:32.126Z,9.63
2022-09-20T00:51:01.134Z,8.35
2022-09-20T00:53:30.030Z,9.95
2022-09-20T00:55:59.328Z,8.18
2022-09-20T00:58:24.783Z,8.35
2022-09-20T01:00:52.843Z,11.25
2022-09-20T01:03:20.161Z,9.32
2022-09-20T01:05:45.348Z,8.80
2022-09-20T01:08:09.876Z,8.43
2022-09-20T01:10:34.576Z,6.25
2022-09-20T01:12:58.376Z,6.00
2022-09-20T01:15:23.999Z,5.75
2022-09-20T01:17:53.584Z,11.48
2022-09-20T01:20:22.552Z,8.43
2022-09-20T01:23:08.436Z,10.40
2022-09-20T01:26:00.046Z,10.07
2022-09-20T01:28:25.741Z,11.23
2022-09-20T01:30:56.157Z,10.25
2022-09-20T01:33:29.881Z,9.98
2022-09-20T01:35:56.289Z,10.48
2022-09-20T01:38:36.786Z,9.95
2022-09-20T01:41:06.543Z,12.18
2022-09-20T01:43:37.685Z,11.48
2022-09-20T01:46:16.726Z,9.00
2022-09-20T01:48:41.949Z,8.48
2022-09-20T01:51:36.376Z,7.55
2022-09-20T01:54:58.551Z,10.10
2022-09-20T01:57:52.209Z,11.05
2022-09-20T02:00:18.848Z,8.98
2022-09-20T02:03:29.364Z,8.50
2022-09-20T02:06:28.502Z,9.68
2022-09-20T02:09:35.717Z,8.57
2022-09-20T02:12:32.775Z,8.80
2022-09-20T02:15:10.284Z,9.68
2022-09-20T02:17:47.453Z,8.63
2022-09-20T02:20:34.421Z,8.27
2022-09-20T02:23:26.560Z,8.95
2022-09-20T02:26:11.105Z,7.25
2022-09-20T02:29:08.115Z,5.22
2022-09-20T02:31:54.465Z,9.85
2022-09-20T02:34:39.333Z,7.80
2022-09-20T02:37:25.599Z,6.47
2022-09-20T02:40:05.228Z,7.53
2022-09-20T02:42:36.248Z,9.57
2022-09-20T02:45:09.160Z,11.70
2022-09-20T02:47:37.372Z,10.25
2022-09-20T02:50:15.133Z,7.47
2022-09-20T02:52:49.137Z,10.13
2022-09-20T02:55:19.610Z,10.27
2022-09-20T02:57:57.360Z,10.35
2022-09-20T03:00:25.414Z,10.40
2022-09-20T03:03:08.558Z,6.20
2022-09-20T03:05:47.468Z,9.32
2022-09-20T03:08:27.301Z,6.65
2022-09-20T03:11:00.504Z,8.80
2022-09-20T03:13:44.241Z,5.68
2022-09-20T03:16:19.611Z,9.90
2022-09-20T03:18:53.968Z,8.63
2022-09-20T03:21:41.828Z,9.35
2022-09-20T03:24:19.508Z,11.07
2022-09-20T03:26:54.190Z,8.50
2022-09-20T03:29:36.580Z,7.90
2022-09-20T03:32:18.429Z,8.80
2022-09-20T03:34:54.212Z,11.88
2022-09-20T03:37:48.417Z,8.52
2022-09-20T03:41:13.214Z,7.72
2022-09-20T03:43:57.840Z,11.02
2022-09-20T03:46:28.119Z,8.77
2022-09-20T03:49:32.098Z,8.90
2022-09-20T03:52:06.600Z,7.50
2022-09-20T03:55:04.108Z,12.02
2022-09-20T03:57:54.433Z,10.32
2022-09-20T04:00:34.545Z,8.02
2022-09-20T04:03:30.038Z,8.73
2022-09-20T04:06:11.382Z,8.93
2022-09-20T04:09:09.420Z,10.00
2022-09-20T04:11:45.214Z,13.88
2022-09-20T04:14:26.668Z,9.25
2022-09-20T04:16:59.674Z,8.65
2022-09-20T04:19:32.852Z,9.45
2022-09-20T04:22:01.201Z,12.70
2022-09-20T04:24:36.488Z,9.95
2022-09-20T04:27:05.994Z,10.63
2022-09-20T04:29:39.346Z,9.68
2022-09-20T04:32:15.096Z,10.05
2022-09-20T04:35:02.656Z,9.60
2022-09-20T04:37:33.103Z,10.60
2022-09-20T04:40:11.101Z,10.48
2022-09-20T04:43:27.970Z,15.68
2022-09-20T04:46:55.925Z,15.35
2022-09-20T04:50:29.403Z,12.18
2022-09-20T04:53:52.590Z,13.13
2022-09-20T04:56:22.834Z,8.48
2022-09-20T04:59:02.200Z,11.05
2022-09-20T05:02:03.579Z,10.20
2022-09-20T05:05:29.481Z,10.98
2022-09-20T05:08:56.626Z,12.98
2022-09-20T05:11:55.925Z,13.80
2022-09-20T05:14:57.513Z,10.50
2022-09-20T05:17:38.247Z,8.90
2022-09-20T05:20:44.690Z,8.35
2022-09-20T05:23:40.845Z,9.13
2022-09-20T05:26:15.446Z,13.07
2022-09-20T05:28:51.789Z,15.55
2022-09-20T05:31:26.203Z,9.38
2022-09-20T05:33:57.775Z,11.02
2022-09-20T05:36:34.399Z,11.63
2022-09-20T05:39:09.342Z,11.85
2022-09-20T05:41:42.587Z,13.65
2022-09-20T05:44:19.364Z,11.75
2022-09-20T05:46:59.002Z,15.05
2022-09-20T05:49:40.057Z,9.77
2022-09-20T05:52:27.048Z,12.55
2022-09-20T05:55:23.240Z,13.75
2022-09-20T05:58:09.049Z,13.15
2022-09-20T06:00:40.727Z,16.50
2022-09-20T06:03:17.505Z,13.05
2022-09-20T06:05:53.617Z,16.20
2022-09-20T06:08:50.159Z,12.98
2022-09-20T06:11:45.932Z,12.43
2022-09-20T06:14:23.144Z,13.10
2022-09-20T06:16:55.301Z,15.98
2022-09-20T06:19:34.446Z,16.00
2022-09-20T06:22:04.791Z,13.55
2022-09-20T06:24:38.632Z,13.48
2022-09-20T06:27:08.727Z,9.98
2022-09-20T06:29:35.390Z,10.40
2022-09-20T06:31:58.968Z,13.68
2022-09-20T06:34:24.040Z,12.50
2022-09-20T06:37:09.937Z,12.05
2022-09-20T06:40:02.992Z,14.90
2022-09-20T06:42:27.546Z,13.18
2022-09-20T06:44:51.451Z,12.80
2022-09-20T06:47:16.316Z,9.38
2022-09-20T06:49:42.794Z,13.27
2022-09-20T06:52:07.385Z,12.90
2022-09-20T06:54:31.095Z,13.95
2022-09-20T06:56:55.385Z,12.63
2022-09-20T06:59:18.944Z,10.88
2022-09-20T07:01:43.561Z,10.93
2022-09-20T07:04:07.678Z,11.85
2022-09-20T07:06:34.115Z,11.55
2022-09-20T07:08:57.761Z,11.82
2022-09-20T07:11:23.105Z,12.05
2022-09-20T07:13:51.561Z,9.43
2022-09-20T07:16:16.130Z,11.40
2022-09-20T07:18:40.292Z,9.00
2022-09-20T07:21:06.288Z,10.30
2022-09-20T07:23:31.669Z,10.20
2022-09-20T07:25:57.837Z,12.30
2022-09-20T07:28:21.948Z,11.63
2022-09-20T07:30:45.376Z,10.90
2022-09-20T07:33:09.968Z,11.32
2022-09-20T07:35:33.471Z,11.65
2022-09-20T07:37:59.998Z,7.32
2022-09-20T07:40:25.764Z,10.88
2022-09-20T07:42:52.022Z,8.48
2022-09-20T07:45:19.199Z,10.10
2022-09-20T07:47:44.928Z,10.75
2022-09-20T07:50:09.917Z,12.05
2022-09-20T07:52:33.554Z,13.90
2022-09-20T07:54:57.516Z,11.75
2022-09-20T07:57:23.414Z,11.40
2022-09-20T07:59:46.870Z,7.45
2022-09-20T08:02:15.549Z,13.75
2022-09-20T08:04:39.082Z,9.77
2022-09-20T08:07:02.520Z,14.02
2022-09-20T08:09:26.113Z,10.65
2022-09-20T08:11:49.627Z,11.63
2022-09-20T08:14:18.100Z,8.20
2022-09-20T08:16:43.855Z,8.40
2022-09-20T08:19:07.413Z,11.32
2022-09-20T08:21:34.970Z,11.45
2022-09-20T08:23:59.650Z,12.75
2022-09-20T08:26:25.482Z,10.07
2022-09-20T08:28:53.627Z,9.05
2022-09-20T08:31:20.709Z,8.75
2022-09-20T08:33:45.795Z,10.32
2022-09-20T08:36:13.625Z,10.60
2022-09-20T08:41:26.362Z,10.15
2022-09-20T08:43:55.256Z,6.70
2022-09-20T08:46:24.919Z,10.05
2022-09-20T08:48:48.568Z,8.32
2022-09-20T08:51:22.721Z,5.05
2022-09-20T08:53:50.063Z,6.35
2022-09-20T08:56:13.618Z,8.00
2022-09-20T08:58:38.456Z,4.45
2022-09-20T09:01:02.348Z,7.88
2022-09-20T09:03:29.331Z,8.25
2022-09-20T09:05:56.655Z,8.98
2022-09-20T09:08:22.290Z,8.82
2022-09-20T09:10:54.218Z,8.98
2022-09-20T09:13:27.543Z,6.82
2022-09-20T09:15:57.746Z,4.97
2022-09-20T09:18:21.581Z,8.77
2022-09-20T09:20:49.057Z,7.15
2022-09-20T09:23:26.323Z,6.22
2022-09-20T09:25:49.924Z,8.23
2022-09-20T09:28:16.560Z,10.02
2022-09-20T09:30:43.297Z,6.40
2022-09-20T09:33:28.311Z,5.70
2022-09-20T09:36:01.774Z,6.00
2022-09-20T09:38:28.343Z,7.88
2022-09-20T09:40:54.829Z,11.70
2022-09-20T09:43:27.070Z,9.57
2022-09-20T09:45:51.337Z,9.27
2022-09-20T09:48:22.547Z,7.80
2022-09-20T09:50:47.685Z,8.32
2022-09-20T09:53:16.550Z,8.45
2022-09-20T09:56:04.639Z,9.02
2022-09-20T09:58:45.093Z,13.60
2022-09-20T10:01:33.091Z,8.65
2022-09-20T10:04:07.235Z,6.90
2022-09-20T10:06:37.532Z,3.92
2022-09-20T10:09:19.712Z,5.43
2022-09-20T10:11:58.794Z,5.32
2022-09-20T10:14:39.470Z,2.50
2022-09-20T10:17:20.862Z,3.55
2022-09-20T10:20:07.712Z,2.55
2022-09-20T10:22:55.798Z,3.50
2022-09-20T10:25:41.142Z,5.13
2022-09-20T10:28:23.135Z,4.45
2022-09-20T10:30:57.036Z,3.42
2022-09-20T10:33:34.353Z,3.92
2022-09-20T10:36:21.140Z,5.03
2022-09-20T10:38:54.316Z,9.13
2022-09-20T10:41:55.592Z,9.50
2022-09-20T10:44:40.385Z,6.65
2022-09-20T10:47:14.160Z,12.50
2022-09-20T10:49:48.474Z,7.47
2022-09-20T10:52:50.070Z,5.93
2022-09-20T10:55:40.321Z,4.13
2022-09-20T10:58:52.001Z,4.30
2022-09-20T11:01:25.191Z,4.15
2022-09-20T11:04:28.372Z,4.00
2022-09-20T11:07:02.784Z,5.95
2022-09-20T11:09:32.609Z,6.03
2022-09-20T11:12:05.563Z,5.25
2022-09-20T11:14:37.217Z,3.38
2022-09-20T11:17:09.448Z,3.70
2022-09-20T11:19:48.841Z,3.28
2022-09-20T11:22:18.903Z,3.63
2022-09-20T11:24:47.892Z,2.40
2022-09-20T11:27:19.563Z,2.75
2022-09-20T11:29:51.943Z,3.63
2022-09-20T11:32:23.273Z,2.80
2022-09-20T11:34:55.417Z,2.85
2022-09-20T11:37:21.776Z,3.58
2022-09-20T11:39:52.230Z,4.20
2022-09-20T11:42:20.367Z,2.78
2022-09-20T11:44:46.076Z,2.35
2022-09-20T11:47:36.527Z,5.18
2022-09-20T11:50:58.011Z,1.88
2022-09-20T11:53:54.664Z,3.38
2022-09-20T11:56:25.071Z,3.13
2022-09-20T11:58:51.960Z,2.28
2022-09-20T12:01:28.255Z,1.98
2022-09-20T12:04:27.967Z,3.40
2022-09-20T12:06:42.601Z,7.72
2022-09-20T12:09:22.888Z,11.27
2022-09-20T12:11:47.263Z,9.38
2022-09-20T12:14:21.474Z,9.57
2022-09-20T12:16:48.496Z,10.00
2022-09-20T12:19:15.120Z,6.10
2022-09-20T12:22:29.589Z,6.45
2022-09-20T12:25:40.673Z,6.45
2022-09-20T12:28:05.367Z,7.85
2022-09-20T12:30:34.195Z,7.10
2022-09-20T12:33:02.462Z,8.07
2022-09-20T12:36:15.899Z,6.60
2022-09-20T12:38:48.238Z,8.88
2022-09-20T12:41:23.104Z,4.40
2022-09-20T12:44:03.648Z,4.95
2022-09-20T12:46:52.618Z,4.60
2022-09-20T12:50:08.645Z,5.93
2022-09-20T12:53:01.181Z,3.75
2022-09-20T12:55:43.756Z,2.47
2022-09-20T12:58:24.967Z,3.63
2022-09-20T13:00:52.399Z,4.00
2022-09-20T13:03:34.859Z,5.20
2022-09-20T13:06:26.715Z,3.38
2022-09-20T13:08:55.431Z,3.58
2022-09-20T13:11:22.368Z,4.40
2022-09-20T13:13:50.335Z,3.83
2022-09-20T13:16:23.356Z,7.65
2022-09-20T13:18:47.994Z,4.07
2022-09-20T13:21:12.084Z,4.25
2022-09-20T13:23:50.060Z,2.10
2022-09-20T13:26:14.883Z,4.25
2022-09-20T13:28:48.184Z,5.30
2022-09-20T13:31:30.155Z,2.58
2022-09-20T13:33:54.379Z,1.58
2022-09-20T13:36:27.033Z,4.18
2022-09-20T13:38:51.912Z,5.28
2022-09-20T13:41:16.758Z,5.60
2022-09-20T13:43:42.966Z,5.53
2022-09-20T13:46:11.665Z,5.10
2022-09-20T13:48:35.503Z,3.20
2022-09-20T13:50:59.891Z,3.05
2022-09-20T13:53:42.327Z,3.47
2022-09-20T13:56:13.152Z,3.47
2022-09-20T13:58:38.277Z,4.07
2022-09-20T14:01:05.696Z,4.32
2022-09-20T14:03:31.049Z,3.92
2022-09-20T14:05:57.956Z,2.92
2022-09-20T14:08:26.076Z,4.45
2022-09-20T14:10:52.529Z,2.97
2022-09-20T14:13:19.776Z,2.70
2022-09-20T14:15:46.862Z,3.85
2022-09-20T14:18:16.147Z,5.53
2022-09-20T14:20:41.295Z,3.67
2022-09-20T14:23:06.098Z,5.13
2022-09-20T14:25:30.219Z,2.60
2022-09-20T14:28:20.421Z,2.13
2022-09-20T14:30:44.016Z,1.63
2022-09-20T14:33:08.553Z,2.63
2022-09-20T14:35:33.249Z,3.92
2022-09-20T14:38:01.372Z,3.60
2022-09-20T14:40:28.456Z,3.53
2022-09-20T14:42:57.254Z,5.25
2022-09-20T14:45:28.416Z,4.00
2022-09-20T14:48:00.136Z,3.40
2022-09-20T14:50:30.605Z,2.05
2022-09-20T14:53:26.905Z,4.35
2022-09-20T14:56:00.903Z,6.80
2022-09-20T14:58:26.214Z,3.00
2022-09-20T15:00:54.604Z,2.17
2022-09-20T15:03:26.262Z,3.35
2022-09-20T15:05:50.954Z,1.73
2022-09-20T15:08:15.792Z,4.18
2022-09-20T15:10:39.419Z,6.63
2022-09-20T15:13:03.027Z,4.00
2022-09-20T15:15:28.697Z,4.00
2022-09-20T15:17:53.775Z,5.85
2022-09-20T15:20:24.163Z,6.53
2022-09-20T15:22:49.162Z,3.13
2022-09-20T15:25:18.149Z,3.13
2022-09-20T15:27:44.491Z,5.15
2022-09-20T15:30:12.499Z,3.70
2022-09-20T15:32:38.800Z,4.13
2022-09-20T15:35:07.305Z,5.55
2022-09-20T15:37:30.878Z,4.13
2022-09-20T15:39:54.384Z,3.70
2022-09-20T15:42:21.371Z,3.97
2022-09-20T15:44:44.845Z,5.75
2022-09-20T15:47:10.102Z,3.70
2022-09-20T15:49:35.276Z,4.45
2022-09-20T15:52:00.413Z,3.92
2022-09-20T15:54:23.942Z,6.57
2022-09-20T15:56:47.466Z,2.13
2022-09-20T15:59:14.674Z,3.92
2022-09-20T16:01:40.747Z,3.47
2022-09-20T16:04:08.097Z,5.25
2022-09-20T16:06:34.098Z,2.80
2022-09-20T16:08:59.150Z,3.58
2022-09-20T16:11:23.955Z,5.35
2022-09-20T16:13:47.726Z,3.33
2022-09-20T16:16:15.779Z,3.08
2022-09-20T16:18:56.909Z,3.55
2022-09-20T16:21:21.435Z,2.50
2022-09-20T16:23:49.928Z,4.35
2022-09-20T16:26:14.889Z,3.13
2022-09-20T16:28:38.502Z,5.18
2022-09-20T16:31:02.115Z,6.10
2022-09-20T16:33:25.729Z,3.05
2022-09-20T16:35:49.580Z,4.28
2022-09-20T16:38:14.081Z,6.32
2022-09-20T16:40:40.302Z,5.18
2022-09-20T16:43:06.201Z,2.83
2022-09-20T16:45:29.857Z,7.40
2022-09-20T16:47:57.314Z,4.38
2022-09-20T16:50:20.900Z,5.55
2022-09-20T16:52:44.803Z,4.57
2022-09-20T16:55:11.079Z,5.32
2022-09-20T16:57:36.814Z,5.22
2022-09-20T17:00:01.805Z,7.57
2022-09-20T17:02:25.362Z,5.10
2022-09-20T17:04:49.268Z,8.85
2022-09-20T17:07:12.949Z,5.40
2022-09-20T17:09:36.530Z,4.88
2022-09-20T17:12:01.299Z,3.45
2022-09-20T17:14:25.496Z,3.60
2022-09-20T17:16:51.472Z,5.18
2022-09-20T17:19:18.406Z,3.67
2022-09-20T17:21:49.217Z,4.93
2022-09-20T17:24:13.804Z,3.22
2022-09-20T17:26:40.355Z,4.30
2022-09-20T17:29:07.718Z,6.22
2022-09-20T17:31:34.605Z,3.65
2022-09-20T17:34:00.898Z,6.28
2022-09-20T17:36:24.666Z,4.18
2022-09-20T17:38:50.028Z,5.68
2022-09-20T17:41:17.098Z,5.38
2022-09-20T17:43:41.910Z,5.80
2022-09-20T17:46:07.955Z,3.20
2022-09-20T17:48:34.302Z,3.42
2022-09-20T17:50:59.725Z,4.38
2022-09-20T17:53:24.294Z,4.82
2022-09-20T17:55:55.073Z,4.20
2022-09-20T17:58:18.921Z,3.05
2022-09-20T18:00:42.589Z,3.92
2022-09-20T18:03:06.182Z,4.68
2022-09-20T18:05:29.567Z,4.78
2022-09-20T18:07:54.961Z,4.68
2022-09-20T18:10:18.378Z,6.45
2022-09-20T18:12:41.811Z,8.30
2022-09-20T18:15:06.758Z,9.60
2022-09-20T18:17:34.588Z,8.43
2022-09-20T18:19:58.044Z,8.27
2022-09-20T18:22:21.612Z,9.48
2022-09-20T18:24:46.515Z,7.80
2022-09-20T18:27:10.014Z,9.55
2022-09-20T18:29:37.489Z,12.98
2022-09-20T18:32:01.334Z,12.70
2022-09-20T18:34:26.777Z,10.65
2022-09-20T18:36:53.521Z,10.65
2022-09-20T18:39:17.065Z,9.43
2022-09-20T18:41:42.833Z,13.27
2022-09-20T18:44:08.223Z,13.05
2022-09-20T18:46:33.313Z,11.15
2022-09-20T18:48:59.982Z,10.57
2022-09-20T18:51:24.957Z,10.23
2022-09-20T18:53:49.187Z,11.65
2022-09-20T18:56:23.668Z,15.30
2022-09-20T18:58:49.235Z,17.55
2022-09-20T19:02:11.007Z,14.50
2022-09-20T19:04:53.299Z,14.02
2022-09-20T19:07:25.669Z,10.73
2022-09-20T19:09:57.429Z,10.55
2022-09-20T19:12:35.626Z,9.32
2022-09-20T19:15:16.398Z,8.25
2022-09-20T19:18:02.040Z,10.48
2022-09-20T19:20:33.022Z,7.80
2022-09-20T19:23:11.853Z,7.22
2022-09-20T19:25:44.146Z,7.38
2022-09-20T19:28:10.308Z,8.48
2022-09-20T19:30:36.373Z,10.02
2022-09-20T19:33:02.749Z,9.75
2022-09-20T19:35:34.917Z,10.45
2022-09-20T19:38:05.977Z,13.27
2022-09-20T19:40:42.048Z,13.05
2022-09-20T19:43:25.034Z,8.98
2022-09-20T19:46:00.266Z,10.70
2022-09-20T19:48:35.451Z,12.48
2022-09-20T19:51:03.163Z,9.68
2022-09-20T19:53:28.827Z,9.10
2022-09-20T19:55:58.204Z,9.63
2022-09-20T19:58:23.522Z,9.15
2022-09-20T20:00:49.913Z,10.35
2022-09-20T20:03:14.551Z,9.88
2022-09-20T20:05:38.451Z,8.20
2022-09-20T20:08:17.188Z,8.25
2022-09-20T20:10:53.571Z,9.25
2022-09-20T20:13:47.039Z,10.75
2022-09-20T20:16:22.111Z,8.77
2022-09-20T20:19:06.926Z,10.07
2022-09-20T20:21:46.414Z,13.18
2022-09-20T20:24:25.838Z,13.88
2022-09-20T20:26:49.328Z,12.27
2022-09-20T20:29:13.016Z,12.85
2022-09-20T20:31:38.071Z,12.52
2022-09-20T20:34:02.194Z,11.10
2022-09-20T20:36:25.658Z,9.68
2022-09-20T20:38:52.744Z,8.80
2022-09-20T20:41:18.385Z,11.30
2022-09-20T20:43:43.884Z,12.02
2022-09-20T20:46:09.214Z,11.95
2022-09-20T20:48:34.792Z,10.27
2022-09-20T20:51:08.114Z,12.93
2022-09-20T20:53:33.638Z,11.88
2022-09-20T20:56:02.764Z,15.50
2022-09-20T20:58:26.228Z,14.63
2022-09-20T21:00:49.729Z,13.73
2022-09-20T21:03:13.121Z,14.45
2022-09-20T21:05:37.951Z,12.57
2022-09-20T21:08:02.213Z,10.27
2022-09-20T21:10:25.870Z,11.30
2022-09-20T21:12:53.111Z,10.45
2022-09-20T21:15:17.147Z,8.77
2022-09-20T21:17:42.448Z,11.13
2022-09-20T21:20:06.593Z,9.88
2022-09-20T21:22:33.250Z,13.23
2022-09-20T21:24:56.998Z,10.30
2022-09-20T21:27:20.923Z,13.27
2022-09-20T21:29:44.411Z,12.18
2022-09-20T21:32:07.874Z,12.85
2022-09-20T21:34:31.443Z,14.15
2022-09-20T21:36:55.451Z,13.98
2022-09-20T21:39:20.261Z,15.10
2022-09-20T21:41:44.206Z,13.07
2022-09-20T21:44:09.786Z,12.57
2022-09-20T21:46:35.123Z,16.05
2022-09-20T21:49:01.100Z,12.23
2022-09-20T21:51:26.001Z,12.85
2022-09-20T21:53:50.396Z,15.63
2022-09-20T21:56:18.209Z,12.35
2022-09-20T21:58:42.121Z,14.65
2022-09-20T22:01:10.109Z,14.10
2022-09-20T22:03:35.501Z,14.93
2022-09-20T22:06:06.026Z,16.08
2022-09-20T22:08:29.556Z,18.10
2022-09-20T22:10:59.992Z,12.63
2022-09-20T22:13:25.161Z,20.67
2022-09-20T22:15:48.819Z,12.65
2022-09-20T22:18:12.257Z,13.15
2022-09-20T22:20:36.191Z,18.42
2022-09-20T22:22:59.945Z,16.08
2022-09-20T22:25:24.264Z,16.27
2022-09-20T22:27:47.934Z,14.57
2022-09-20T22:30:14.290Z,14.48
2022-09-20T22:32:37.787Z,14.10
2022-09-20T22:35:01.274Z,14.02
2022-09-20T22:37:24.832Z,13.45
2022-09-20T22:39:48.634Z,14.52
2022-09-20T22:42:12.114Z,11.93
2022-09-20T22:44:35.922Z,15.20
2022-09-20T22:47:00.759Z,18.67
2022-09-20T22:49:24.196Z,17.73
2022-09-20T22:51:48.702Z,16.52
2022-09-20T22:54:13.574Z,14.52
2022-09-20T22:56:37.958Z,10.95
2022-09-20T22:59:05.720Z,11.95
2022-09-20T23:01:31.720Z,11.73
2022-09-20T23:03:59.721Z,13.15
2022-09-20T23:06:25.648Z,10.65
2022-09-20T23:08:59.105Z,10.98
2022-09-20T23:11:22.748Z,11.43
2022-09-20T23:13:47.112Z,12.52
2022-09-20T23:16:17.310Z,10.55
2022-09-20T23:18:41.166Z,10.35
2022-09-20T23:21:06.343Z,8.98
2022-09-20T23:23:30.774Z,10.23
2022-09-20T23:25:55.613Z,11.55
2022-09-20T23:28:19.098Z,11.32
2022-09-20T23:30:42.567Z,9.88
2022-09-20T23:33:06.103Z,10.88
2022-09-20T23:35:29.645Z,10.35
2022-09-20T23:37:56.924Z,8.52
2022-09-20T23:40:20.527Z,9.20
2022-09-20T23:42:44.044Z,12.20
2022-09-20T23:45:09.692Z,12.20
2022-09-20T23:47:33.159Z,13.07
2022-09-20T23:49:56.676Z,9.15
2022-09-20T23:52:20.196Z,13.75
2022-09-20T23:54:44.958Z,10.93
2022-09-20T23:57:08.489Z,10.30
2022-09-20T23:59:32.666Z,13.45
